createdAt,value
2023-11-12T00:00:46.788Z,2.20
2023-11-12T00:03:17.993Z,2.27
2023-11-12T00:05:46.417Z,2.30
2023-11-12T00:08:14.508Z,2.20
2023-11-12T00:10:42.743Z,2.20
2023-11-12T00:13:11.247Z,2.30
2023-11-12T00:15:41.437Z,2.30
2023-11-12T00:18:09.622Z,2.30
2023-11-12T00:20:39.134Z,2.00
2023-11-12T00:23:09.989Z,1.80
2023-11-12T00:25:38.001Z,2.20
2023-11-12T00:28:06.523Z,2.30
2023-11-12T00:30:34.713Z,2.20
2023-11-12T00:33:02.860Z,2.20
2023-11-12T00:35:31.339Z,2.10
2023-11-12T00:38:00.977Z,2.20
2023-11-12T00:40:31.519Z,2.20
2023-11-12T00:42:59.663Z,2.20
2023-11-12T00:45:27.707Z,2.20
2023-11-12T00:47:56.388Z,2.30
2023-11-12T00:50:24.824Z,2.30
2023-11-12T00:52:53.159Z,2.40
2023-11-12T00:55:22.646Z,2.40
2023-11-12T00:57:50.967Z,2.30
2023-11-12T01:00:19.575Z,2.30
2023-11-12T01:02:47.949Z,2.20
2023-11-12T01:05:16.712Z,2.20
2023-11-12T01:07:45.324Z,2.10
2023-11-12T01:10:13.838Z,2.23
2023-11-12T01:12:43.344Z,2.20
2023-11-12T01:15:12.707Z,2.27
2023-11-12T01:17:40.933Z,2.20
2023-11-12T01:20:11.490Z,2.20
2023-11-12T01:22:39.966Z,2.30
2023-11-12T01:25:09.093Z,2.20
2023-11-12T01:27:37.396Z,2.17
2023-11-12T01:30:08.600Z,1.83
2023-11-12T01:32:36.862Z,2.10
2023-11-12T01:35:06.373Z,2.10
2023-11-12T01:37:34.567Z,2.17
2023-11-12T01:40:02.600Z,1.90
2023-11-12T01:42:31.142Z,2.00
2023-11-12T01:45:01.147Z,2.10
2023-11-12T01:47:30.725Z,1.70
2023-11-12T01:49:59.292Z,1.80
2023-11-12T01:52:27.842Z,2.03
2023-11-12T01:54:57.795Z,1.90
2023-11-12T01:57:26.447Z,2.10
2023-11-12T01:59:54.689Z,2.10
2023-11-12T02:02:23.278Z,2.10
2023-11-12T02:04:53.683Z,1.80
2023-11-12T02:07:22.396Z,2.00
2023-11-12T02:09:56.168Z,1.90
2023-11-12T02:12:24.514Z,2.10
2023-11-12T02:14:52.921Z,2.00
2023-11-12T02:17:21.050Z,2.10
2023-11-12T02:19:49.261Z,2.00
2023-11-12T02:22:19.375Z,2.00
2023-11-12T02:24:48.874Z,2.00
2023-11-12T02:27:17.143Z,1.70
2023-11-12T02:29:49.733Z,2.10
2023-11-12T02:32:17.929Z,1.90
2023-11-12T02:34:46.672Z,2.10
2023-11-12T02:37:15.559Z,2.00
2023-11-12T02:39:43.763Z,1.70
2023-11-12T02:42:14.372Z,2.10
2023-11-12T02:44:43.398Z,1.80
2023-11-12T02:47:12.279Z,2.00
2023-11-12T02:49:54.743Z,1.70
2023-11-12T02:52:23.058Z,2.10
2023-11-12T02:54:51.101Z,2.20
2023-11-12T02:57:22.687Z,1.90
2023-11-12T02:59:51.200Z,2.00
2023-11-12T03:02:19.316Z,2.10
2023-11-12T03:04:49.094Z,2.00
2023-11-12T03:07:18.022Z,2.00
2023-11-12T03:09:46.460Z,2.20
2023-11-12T03:12:15.199Z,1.73
2023-11-12T03:14:45.398Z,2.20
2023-11-12T03:17:14.090Z,2.33
2023-11-12T03:19:41.610Z,2.20
2023-11-12T03:22:10.087Z,2.20
2023-11-12T03:24:38.449Z,2.00
2023-11-12T03:27:06.892Z,1.90
2023-11-12T03:29:34.891Z,2.20
2023-11-12T03:32:04.373Z,1.60
2023-11-12T03:34:32.872Z,2.10
2023-11-12T03:37:00.838Z,1.93
2023-11-12T03:39:28.889Z,2.10
2023-11-12T03:41:56.910Z,2.17
2023-11-12T03:44:25.002Z,1.90
2023-11-12T03:46:53.064Z,2.10
2023-11-12T03:49:22.903Z,1.80
2023-11-12T03:51:53.057Z,2.10
2023-11-12T03:54:21.045Z,2.10
2023-11-12T03:56:49.295Z,1.80
2023-11-12T03:59:17.325Z,1.70
2023-11-12T04:01:49.068Z,1.70
2023-11-12T04:04:17.531Z,1.80
2023-11-12T04:06:46.969Z,2.10
2023-11-12T04:09:15.014Z,2.23
2023-11-12T04:11:43.826Z,2.10
2023-11-12T04:14:12.344Z,2.10
2023-11-12T04:16:41.838Z,2.10
2023-11-12T04:19:10.187Z,2.10
2023-11-12T04:21:38.791Z,1.70
2023-11-12T04:24:10.074Z,2.10
2023-11-12T04:26:38.257Z,2.03
2023-11-12T04:29:08.361Z,2.00
2023-11-12T04:31:37.378Z,2.10
2023-11-12T04:34:06.273Z,2.00
2023-11-12T04:36:36.718Z,2.00
2023-11-12T04:39:05.085Z,2.20
2023-11-12T04:41:34.469Z,2.00
2023-11-12T04:44:02.558Z,2.10
2023-11-12T04:46:32.319Z,1.70
2023-11-12T04:49:00.944Z,1.70
2023-11-12T04:51:29.077Z,2.03
2023-11-12T04:53:57.208Z,2.00
2023-11-12T04:56:25.411Z,2.10
2023-11-12T04:58:54.969Z,1.70
2023-11-12T05:01:22.980Z,1.90
2023-11-12T05:03:51.219Z,2.00
2023-11-12T05:06:19.499Z,2.00
2023-11-12T05:08:47.599Z,2.10
2023-11-12T05:11:15.562Z,2.00
2023-11-12T05:13:43.704Z,2.10
2023-11-12T05:16:13.362Z,2.10
2023-11-12T05:18:42.045Z,1.80
2023-11-12T05:21:10.198Z,2.00
2023-11-12T05:23:38.639Z,2.00
2023-11-12T05:26:06.798Z,1.80
2023-11-12T05:28:34.938Z,2.10
2023-11-12T05:31:03.079Z,2.00
2023-11-12T05:33:32.701Z,2.10
2023-11-12T05:36:00.788Z,2.03
2023-11-12T05:38:29.381Z,2.33
2023-11-12T05:40:57.607Z,1.80
2023-11-12T05:43:25.627Z,2.00
2023-11-12T05:45:53.805Z,2.00
2023-11-12T05:48:22.137Z,2.00
2023-11-12T05:50:51.562Z,2.00
2023-11-12T05:53:20.812Z,2.00
2023-11-12T05:55:48.863Z,2.00
2023-11-12T05:58:17.352Z,2.00
2023-11-12T06:00:45.869Z,2.00
2023-11-12T06:03:14.052Z,1.90
2023-11-12T06:05:42.334Z,2.00
2023-11-12T06:08:10.619Z,2.10
2023-11-12T06:10:38.882Z,2.10
2023-11-12T06:13:06.785Z,2.10
2023-11-12T06:15:35.091Z,2.10
2023-11-12T06:18:04.202Z,2.10
2023-11-12T06:20:32.253Z,2.10
2023-11-12T06:23:00.354Z,1.70
2023-11-12T06:25:29.732Z,2.00
2023-11-12T06:27:57.748Z,2.10
2023-11-12T06:30:25.864Z,1.70
2023-11-12T06:32:53.903Z,1.80
2023-11-12T06:35:22.222Z,1.90
2023-11-12T06:37:50.239Z,2.10
2023-11-12T06:40:18.653Z,2.20
2023-11-12T06:42:48.568Z,2.00
2023-11-12T06:45:17.596Z,2.20
2023-11-12T06:47:46.252Z,1.80
2023-11-12T06:50:15.109Z,2.10
2023-11-12T06:52:43.301Z,1.90
2023-11-12T06:55:11.656Z,2.30
2023-11-12T06:57:40.236Z,2.10
2023-11-12T07:00:11.654Z,2.10
2023-11-12T07:02:40.075Z,2.10
2023-11-12T07:05:08.751Z,2.20
2023-11-12T07:07:36.701Z,2.10
2023-11-12T07:10:07.218Z,1.80
2023-11-12T07:12:35.349Z,2.00
2023-11-12T07:15:04.933Z,1.80
2023-11-12T07:17:36.739Z,2.00
2023-11-12T07:20:06.964Z,2.10
2023-11-12T07:22:37.176Z,2.20
2023-11-12T07:25:05.752Z,2.00
2023-11-12T07:27:33.718Z,2.10
2023-11-12T07:30:02.045Z,2.00
2023-11-12T07:32:30.080Z,2.20
2023-11-12T07:34:59.808Z,1.80
2023-11-12T07:37:31.066Z,2.20
2023-11-12T07:39:59.104Z,2.00
2023-11-12T07:42:27.408Z,2.00
2023-11-12T07:45:00.246Z,1.70
2023-11-12T07:47:36.626Z,2.10
2023-11-12T07:50:07.928Z,2.00
2023-11-12T07:52:36.246Z,2.00
2023-11-12T07:55:06.345Z,2.10
2023-11-12T07:57:34.736Z,1.70
2023-11-12T08:00:02.805Z,2.00
2023-11-12T08:02:40.340Z,2.00
2023-11-12T08:05:11.248Z,2.10
2023-11-12T08:07:39.524Z,1.90
2023-11-12T08:10:09.936Z,2.00
2023-11-12T08:12:39.379Z,1.60
2023-11-12T08:15:11.966Z,2.10
2023-11-12T08:17:40.234Z,1.90
2023-11-12T08:20:11.953Z,1.83
2023-11-12T08:22:39.958Z,2.00
2023-11-12T08:25:10.980Z,1.70
2023-11-12T08:27:39.350Z,1.70
2023-11-12T08:30:08.827Z,1.97
2023-11-12T08:32:37.413Z,1.90
2023-11-12T08:35:06.628Z,1.60
2023-11-12T08:37:36.975Z,2.00
2023-11-12T08:40:08.112Z,2.00
2023-11-12T08:42:36.374Z,1.90
2023-11-12T08:45:05.557Z,2.00
2023-11-12T08:47:33.956Z,1.70
2023-11-12T08:50:02.007Z,1.60
2023-11-12T08:52:29.948Z,1.90
2023-11-12T08:55:00.315Z,2.00
2023-11-12T08:57:28.587Z,1.60
2023-11-12T08:59:56.696Z,1.90
2023-11-12T09:02:24.843Z,2.00
2023-11-12T09:04:52.880Z,2.00
2023-11-12T09:07:21.418Z,1.90
2023-11-12T09:09:49.440Z,1.90
2023-11-12T09:12:18.799Z,2.00
2023-11-12T09:14:46.995Z,1.70
2023-11-12T09:17:15.724Z,1.93
2023-11-12T09:19:46.400Z,1.90
2023-11-12T09:22:14.891Z,1.90
2023-11-12T09:24:55.328Z,1.60
2023-11-12T09:27:34.015Z,1.90
2023-11-12T09:30:02.486Z,1.90
2023-11-12T09:32:31.225Z,1.90
2023-11-12T09:34:59.281Z,1.90
2023-11-12T09:37:27.540Z,1.60
2023-11-12T09:39:55.991Z,1.90
2023-11-12T09:42:28.056Z,1.80
2023-11-12T09:45:00.568Z,1.60
2023-11-12T09:47:39.518Z,1.90
2023-11-12T09:50:11.744Z,1.70
2023-11-12T09:52:39.995Z,1.60
2023-11-12T09:55:11.523Z,1.80
2023-11-12T09:57:39.942Z,2.00
2023-11-12T10:00:13.820Z,1.70
2023-11-12T10:02:42.888Z,1.90
2023-11-12T10:05:12.488Z,1.90
2023-11-12T10:07:41.002Z,2.00
2023-11-12T10:10:25.887Z,1.90
2023-11-12T10:12:54.805Z,2.00
2023-11-12T10:15:29.514Z,2.00
2023-11-12T10:18:01.161Z,1.80
2023-11-12T10:20:31.632Z,1.70
2023-11-12T10:23:00.300Z,1.70
2023-11-12T10:25:37.274Z,2.00
2023-11-12T10:28:05.712Z,1.80
2023-11-12T10:30:36.219Z,2.10
2023-11-12T10:33:16.873Z,1.70
2023-11-12T10:35:46.665Z,2.10
2023-11-12T10:38:16.476Z,2.00
2023-11-12T10:40:59.602Z,2.00
2023-11-12T10:43:28.946Z,2.00
2023-11-12T10:46:00.622Z,2.03
2023-11-12T10:48:32.300Z,2.00
2023-11-12T10:51:02.133Z,1.80
2023-11-12T10:53:32.526Z,1.70
2023-11-12T10:56:02.240Z,2.03
2023-11-12T10:58:31.697Z,1.90
2023-11-12T11:01:02.604Z,1.90
2023-11-12T11:03:32.336Z,1.60
2023-11-12T11:06:02.985Z,1.70
2023-11-12T11:08:32.540Z,2.00
2023-11-12T11:11:02.055Z,1.70
2023-11-12T11:13:30.804Z,2.00
2023-11-12T11:16:02.018Z,1.80
2023-11-12T11:19:04.540Z,2.03
2023-11-12T11:21:33.241Z,1.70
2023-11-12T11:24:03.465Z,2.10
2023-11-12T11:26:35.978Z,1.90
2023-11-12T11:29:15.046Z,1.83
2023-11-12T11:32:05.389Z,1.90
2023-11-12T11:34:42.000Z,1.80
2023-11-12T11:37:10.675Z,1.80
2023-11-12T11:39:40.383Z,1.90
2023-11-12T11:42:14.081Z,1.90
2023-11-12T11:44:43.904Z,1.80
2023-11-12T11:47:14.308Z,1.73
2023-11-12T11:49:47.025Z,1.80
2023-11-12T11:52:25.845Z,1.53
2023-11-12T11:55:03.942Z,1.80
2023-11-12T11:57:33.596Z,1.80
2023-11-12T12:00:03.240Z,1.40
2023-11-12T12:02:44.181Z,1.80
2023-11-12T12:05:15.261Z,1.80
2023-11-12T12:07:47.252Z,1.90
2023-11-12T12:10:27.935Z,1.50
2023-11-12T12:12:57.591Z,1.80
2023-11-12T12:15:26.177Z,1.60
2023-11-12T12:17:54.854Z,1.50
2023-11-12T12:20:26.839Z,1.80
2023-11-12T12:22:56.013Z,1.90
2023-11-12T12:25:25.070Z,1.77
2023-11-12T12:27:54.680Z,1.70
2023-11-12T12:30:23.366Z,1.90
2023-11-12T12:32:52.751Z,1.50
2023-11-12T12:35:25.478Z,1.90
2023-11-12T12:37:54.325Z,1.90
2023-11-12T12:40:30.154Z,1.90
2023-11-12T12:43:00.265Z,1.80
2023-11-12T12:45:29.230Z,1.80
2023-11-12T12:47:59.317Z,1.80
2023-11-12T12:50:31.144Z,1.80
2023-11-12T12:53:14.358Z,1.80
2023-11-12T12:55:45.193Z,1.60
2023-11-12T12:58:14.104Z,1.70
2023-11-12T13:00:43.947Z,1.80
2023-11-12T13:03:24.873Z,1.90
2023-11-12T13:05:56.976Z,1.70
2023-11-12T13:08:25.630Z,1.80
2023-11-12T13:10:55.554Z,1.80
2023-11-12T13:13:25.498Z,1.80
2023-11-12T13:15:54.037Z,1.50
2023-11-12T13:18:23.513Z,1.80
2023-11-12T13:20:52.602Z,1.80
2023-11-12T13:23:23.249Z,1.80
2023-11-12T13:25:55.075Z,1.90
2023-11-12T13:28:23.964Z,1.50
2023-11-12T13:30:54.345Z,1.50
2023-11-12T13:33:24.820Z,1.80
2023-11-12T13:36:00.519Z,1.90
2023-11-12T13:38:32.793Z,1.93
2023-11-12T13:41:03.161Z,1.80
2023-11-12T13:43:34.490Z,1.70
2023-11-12T13:46:02.883Z,1.70
2023-11-12T13:48:31.458Z,1.50
2023-11-12T13:51:00.124Z,1.50
2023-11-12T13:53:30.661Z,1.90
2023-11-12T13:56:01.359Z,1.80
2023-11-12T13:58:30.426Z,2.03
2023-11-12T14:00:58.930Z,1.70
2023-11-12T14:03:27.894Z,1.80
2023-11-12T14:05:56.459Z,1.90
2023-11-12T14:08:24.867Z,1.87
2023-11-12T14:10:56.367Z,1.80
2023-11-12T14:13:25.101Z,1.80
2023-11-12T14:15:53.965Z,1.90
2023-11-12T14:18:23.220Z,1.70
2023-11-12T14:20:51.719Z,1.70
2023-11-12T14:23:20.702Z,1.50
2023-11-12T14:25:52.592Z,1.80
2023-11-12T14:28:27.765Z,1.80
2023-11-12T14:30:58.640Z,1.90
2023-11-12T14:33:27.247Z,1.77
2023-11-12T14:35:55.740Z,1.80
2023-11-12T14:38:24.106Z,1.90
2023-11-12T14:40:52.530Z,1.80
2023-11-12T14:43:22.956Z,2.00
2023-11-12T14:45:51.433Z,1.60
2023-11-12T14:48:20.525Z,1.80
2023-11-12T14:50:49.988Z,1.80
2023-11-12T14:53:18.390Z,1.90
2023-11-12T14:55:46.681Z,1.90
2023-11-12T14:58:15.651Z,1.80
2023-11-12T15:00:45.366Z,1.40
2023-11-12T15:03:15.232Z,1.90
2023-11-12T15:05:44.350Z,1.80
2023-11-12T15:08:12.793Z,1.63
2023-11-12T15:10:41.375Z,1.50
2023-11-12T15:13:10.226Z,1.90
2023-11-12T15:15:38.846Z,1.80
2023-11-12T15:18:12.424Z,1.70
2023-11-12T15:20:41.289Z,1.80
2023-11-12T15:23:09.725Z,1.90
2023-11-12T15:25:39.266Z,1.80
2023-11-12T15:28:07.685Z,1.50
2023-11-12T15:30:36.175Z,1.70
2023-11-12T15:33:07.579Z,1.50
2023-11-12T15:35:37.658Z,1.80
2023-11-12T15:38:06.445Z,2.00
2023-11-12T15:40:37.439Z,1.60
2023-11-12T15:43:06.114Z,1.90
2023-11-12T15:45:34.597Z,1.90
2023-11-12T15:48:03.052Z,1.80
2023-11-12T15:50:31.766Z,1.50
2023-11-12T15:53:03.089Z,1.90
2023-11-12T15:55:32.609Z,1.50
2023-11-12T15:58:01.077Z,1.90
2023-11-12T16:00:29.595Z,1.90
2023-11-12T16:03:02.459Z,1.50
2023-11-12T16:05:34.527Z,1.87
2023-11-12T16:08:04.411Z,1.90
2023-11-12T16:10:32.763Z,1.70
2023-11-12T16:13:01.228Z,1.70
2023-11-12T16:15:30.945Z,1.33
2023-11-12T16:18:00.373Z,1.70
2023-11-12T16:20:28.972Z,1.77
2023-11-12T16:22:58.086Z,1.50
2023-11-12T16:25:28.394Z,1.90
2023-11-12T16:27:57.268Z,1.80
2023-11-12T16:30:27.740Z,1.90
2023-11-12T16:32:56.865Z,1.87
2023-11-12T16:35:25.434Z,1.50
2023-11-12T16:37:56.088Z,2.10
2023-11-12T16:40:23.686Z,2.07
2023-11-12T16:42:54.605Z,1.80
2023-11-12T16:45:23.976Z,1.90
2023-11-12T16:47:52.381Z,1.90
2023-11-12T16:50:21.593Z,2.00
2023-11-12T16:52:50.039Z,1.60
2023-11-12T16:55:18.433Z,2.00
2023-11-12T16:57:49.133Z,2.00
2023-11-12T17:00:22.706Z,1.80
2023-11-12T17:02:51.401Z,2.00
2023-11-12T17:05:21.055Z,2.10
2023-11-12T17:07:49.573Z,2.00
2023-11-12T17:10:19.322Z,2.10
2023-11-12T17:12:48.112Z,1.70
2023-11-12T17:15:16.723Z,1.70
2023-11-12T17:17:49.252Z,2.17
2023-11-12T17:20:18.585Z,2.00
2023-11-12T17:22:48.708Z,2.13
2023-11-12T17:25:17.963Z,1.90
2023-11-12T17:27:46.746Z,2.10
2023-11-12T17:30:15.589Z,2.00
2023-11-12T17:32:45.421Z,2.10
2023-11-12T17:35:16.180Z,2.10
2023-11-12T17:37:44.954Z,1.90
2023-11-12T17:40:14.033Z,2.20
2023-11-12T17:42:43.540Z,2.10
2023-11-12T17:45:13.030Z,2.10
2023-11-12T17:47:42.470Z,2.00
2023-11-12T17:50:11.975Z,2.10
2023-11-12T17:52:41.857Z,2.10
2023-11-12T17:55:11.834Z,2.13
2023-11-12T17:57:40.452Z,2.20
2023-11-12T18:00:10.600Z,2.10
2023-11-12T18:02:40.066Z,2.10
2023-11-12T18:05:08.863Z,2.20
2023-11-12T18:07:37.563Z,2.27
2023-11-12T18:10:12.138Z,2.20
2023-11-12T18:12:42.292Z,2.20
2023-11-12T18:15:14.662Z,2.20
2023-11-12T18:17:43.497Z,2.20
2023-11-12T18:20:12.555Z,2.10
2023-11-12T18:22:41.054Z,2.20
2023-11-12T18:25:12.210Z,2.20
2023-11-12T18:27:42.267Z,2.10
2023-11-12T18:30:11.175Z,2.30
2023-11-12T18:32:39.900Z,2.30
2023-11-12T18:35:09.506Z,2.20
2023-11-12T18:37:37.937Z,2.20
2023-11-12T18:40:10.074Z,2.20
2023-11-12T18:42:40.354Z,2.30
2023-11-12T18:45:09.379Z,2.10
2023-11-12T18:47:37.846Z,2.20
2023-11-12T18:50:07.095Z,2.30
2023-11-12T18:52:35.466Z,2.10
2023-11-12T18:55:04.250Z,2.20
2023-11-12T18:57:32.787Z,2.20
2023-11-12T19:00:07.828Z,2.40
2023-11-12T19:02:37.046Z,2.30
2023-11-12T19:05:05.751Z,1.90
2023-11-12T19:07:34.327Z,2.30
2023-11-12T19:10:02.859Z,2.10
2023-11-12T19:12:31.250Z,2.30
2023-11-12T19:15:00.281Z,2.20
2023-11-12T19:17:30.165Z,2.40
2023-11-12T19:20:00.897Z,2.10
2023-11-12T19:22:29.304Z,2.00
2023-11-12T19:24:57.930Z,2.20
2023-11-12T19:27:27.768Z,2.10
2023-11-12T19:30:05.204Z,2.30
2023-11-12T19:32:42.420Z,2.50
2023-11-12T19:35:14.952Z,2.20
2023-11-12T19:37:45.164Z,2.20
2023-11-12T19:40:17.783Z,2.10
2023-11-12T19:42:48.940Z,2.20
2023-11-12T19:45:20.031Z,2.20
2023-11-12T19:47:53.161Z,2.20
2023-11-12T19:50:22.406Z,2.30
2023-11-12T19:52:51.061Z,2.30
2023-11-12T19:55:20.810Z,2.20
2023-11-12T19:57:53.133Z,2.30
2023-11-12T20:00:22.792Z,2.23
2023-11-12T20:02:53.119Z,2.20
2023-11-12T20:05:21.933Z,2.30
2023-11-12T20:07:49.401Z,2.30
2023-11-12T20:10:18.708Z,2.40
2023-11-12T20:12:48.640Z,2.10
2023-11-12T20:15:19.319Z,2.20
2023-11-12T20:17:48.235Z,2.50
2023-11-12T20:20:18.291Z,2.40
2023-11-12T20:22:46.822Z,2.20
2023-11-12T20:25:15.439Z,2.20
2023-11-12T20:27:45.018Z,2.40
2023-11-12T20:30:16.493Z,2.30
2023-11-12T20:32:44.983Z,2.40
2023-11-12T20:35:15.717Z,2.50
2023-11-12T20:37:46.559Z,2.40
2023-11-12T20:40:16.480Z,2.23
2023-11-12T20:42:44.995Z,2.10
2023-11-12T20:45:18.032Z,2.20
2023-11-12T20:47:51.236Z,2.50
2023-11-12T20:50:19.705Z,2.20
2023-11-12T20:52:50.370Z,2.40
2023-11-12T20:55:19.279Z,2.40
2023-11-12T20:57:50.992Z,2.30
2023-11-12T21:00:22.226Z,2.20
2023-11-12T21:02:52.373Z,2.30
2023-11-12T21:05:21.585Z,2.40
2023-11-12T21:07:51.900Z,2.20
2023-11-12T21:10:22.441Z,2.20
2023-11-12T21:12:51.212Z,2.30
2023-11-12T21:15:19.974Z,2.40
2023-11-12T21:17:48.413Z,2.40
2023-11-12T21:20:17.643Z,2.37
2023-11-12T21:22:46.012Z,2.40
2023-11-12T21:25:18.187Z,2.20
2023-11-12T21:27:47.328Z,2.20
2023-11-12T21:30:20.760Z,2.37
2023-11-12T21:32:49.324Z,2.40
2023-11-12T21:35:26.614Z,2.20
2023-11-12T21:37:55.350Z,2.40
2023-11-12T21:40:25.216Z,2.30
2023-11-12T21:42:53.874Z,2.20
2023-11-12T21:45:28.383Z,2.30
2023-11-12T21:47:56.981Z,2.20
2023-11-12T21:50:27.049Z,2.30
2023-11-12T21:52:59.335Z,2.30
2023-11-12T21:55:29.812Z,2.30
2023-11-12T21:57:59.041Z,2.40
2023-11-12T22:00:28.832Z,2.50
2023-11-12T22:02:58.507Z,2.20
2023-11-12T22:05:28.940Z,2.30
2023-11-12T22:07:57.560Z,2.40
2023-11-12T22:10:26.267Z,2.30
2023-11-12T22:12:56.660Z,2.50
2023-11-12T22:15:25.300Z,2.30
2023-11-12T22:17:53.804Z,2.10
2023-11-12T22:20:22.418Z,2.40
2023-11-12T22:22:50.916Z,2.30
2023-11-12T22:25:20.348Z,2.30
2023-11-12T22:27:49.773Z,2.40
2023-11-12T22:30:20.357Z,2.10
2023-11-12T22:32:50.021Z,2.23
2023-11-12T22:35:19.715Z,2.40
2023-11-12T22:37:48.330Z,2.40
2023-11-12T22:40:16.900Z,2.40
2023-11-12T22:42:45.423Z,2.40
2023-11-12T22:45:14.518Z,2.40
2023-11-12T22:47:44.631Z,2.10
2023-11-12T22:50:15.350Z,2.20
2023-11-12T22:52:43.910Z,2.20
2023-11-12T22:55:13.192Z,2.30
2023-11-12T22:57:44.458Z,2.40
2023-11-12T23:02:56.920Z,2.20
2023-11-12T23:05:25.502Z,2.13
2023-11-12T23:07:53.903Z,2.50
2023-11-12T23:10:22.740Z,2.20
2023-11-12T23:12:51.276Z,2.23
2023-11-12T23:15:20.779Z,2.40
2023-11-12T23:17:49.276Z,2.33
2023-11-12T23:20:21.161Z,2.23
2023-11-12T23:22:49.722Z,2.30
2023-11-12T23:25:19.524Z,2.27
2023-11-12T23:27:47.936Z,2.20
2023-11-12T23:30:16.482Z,2.10
2023-11-12T23:32:45.162Z,2.20
2023-11-12T23:35:13.631Z,2.40
2023-11-12T23:37:44.751Z,2.30
2023-11-12T23:40:15.767Z,2.50
2023-11-12T23:42:44.241Z,2.20
2023-11-12T23:45:13.422Z,2.20
2023-11-12T23:47:41.968Z,2.10
2023-11-12T23:50:11.108Z,2.40
2023-11-12T23:52:39.537Z,2.30
2023-11-12T23:55:10.884Z,2.03
2023-11-12T23:57:39.393Z,2.30
